Terminal Aerodrome Forecast
Issued by NWS Glasgow, MT

Home | Current Version | Previous Version | Text Only | Print | Product List | Glossary On
Versions: 1 2 3 4 5 6 7 8 9 10 11 12
120
FTUS45 KGGW 101124
TAFGGW
TAF
KGGW 101124Z 1012/1112 30008KT P6SM SCT250
     FM101800 34009KT P6SM BKN120
     FM110000 02005KT P6SM BKN100
     FM110300 08004KT P6SM BKN070
     FM110600 11005KT P6SM BKN020=

USA.gov is the U.S. government's official web portal to all federal, state and local government web resources and services.